發表時間 文章標題 人氣 留言
2015-09-17 美食熱銷款-【台灣茶人】手採大禹嶺比賽烏龍8罐(附提袋2個 - 贈:雙層玻璃茶海乙個) (0) (0)
2015-09-17 美食熱銷款-【蜜匠】純正龍眼蜂蜜700g(1瓶) (0) (0)
2015-09-17 美食熱銷款-【新竹內灣】傳統客家野薑花粽20顆 (85g+-5g-顆) (1) (0)
2015-09-17 美食熱銷款-竹山《林宗男波羅蜜王》原味脆片6包 (1) (0)
2015-09-17 美食熱銷款-【騰龍食品】美式香烤豬肋排+肋眼牛排 (5) (0)
2015-09-17 美食熱銷款-《宏基》禮盒D (真蜂+吃醋) (0) (0)
2015-09-17 美食熱銷款-《上海鄉村》蜜汁核桃(260g) (0) (0)
2015-09-17 美食熱銷款-【貓咪熊】椒麻黑羽土雞鳳爪4包(約10~12支-300g-包 )(含運) (0) (0)
2015-09-17 美食熱銷款-《第二顆鈕釦》伯爵核桃蜂巢蛋糕2盒熱銷組 (0) (0)
2015-09-17 美食熱銷款-【築地一番鮮】空運1.5KG智利帝王蟹x2隻 (0) (0)
2015-09-17 美食熱銷款-【華得水產】東港野生烏魚子禮盒1盒(3兩/2片/盒 附提袋x1) (0) (0)
2015-09-17 美食熱銷款-小顏美人韓國玉米鬚茶(240包)組 (2) (0)
2015-09-17 美食熱銷款-【寶島咖啡】寶島濾掛式天皇A咖啡10入 (0) (0)
2015-09-17 美食熱銷款-【郭記名點】桂圓蛋糕(1盒12入) (3) (0)
2015-09-17 美食熱銷款-【皇族】法式馬卡龍甜蜜(40顆)暢銷組-集網 (0) (0)
2015-09-17 美食熱銷款-【禾園生技】旺伯有機 高纖燕麥奶 超值四入組 (0) (0)
2015-09-17 美食熱銷款-【馬玉山】冰糖杏仁茶隨身包組合,共140小包 (0) (0)
2015-09-17 美食熱銷款-【吉園圃認證】屏東枋山愛文芒果5斤裝x4箱組 (0) (0)
2015-09-17 美食熱銷款-【啡兒咖啡】濾掛式咖啡-水果花園(10入/彩盒) (0) (0)
2015-09-17 美食熱銷款-【龍潤普洱茶】蘭蕙普洱生茶餅2入超殺組-集網 (0) (0)
2015-09-16 美食熱銷款-新鮮頂級加州空運櫻桃10.5R-3KG (1) (0)
2015-09-16 美食熱銷款-【野生魚鋪】馬紹爾野生花點石斑350G-3件組 (3) (0)
2015-09-16 美食熱銷款-【好神】紐西蘭PS頂級鮮切帶骨牛小排45片組(100g/片) (0) (0)
2015-09-16 美食熱銷款-彼斯卡特經典蛋糕酥-蜂蜜口味 (0) (0)
2015-09-16 美食熱銷款-【賣魚的家】頂級大明蝦禮盒(750g-14尾) (1) (0)
2015-09-16 美食熱銷款-【南勢山嚴選】南勢山溫室有機番茄 6盒 (1台斤-盒) (0) (0)
2015-09-16 美食熱銷款-【詩尚草本】巴西莓芒果活力茶(20環保包)x2盒 (0) (0)
2015-09-16 美食熱銷款-澤合熱巧克力飲品(3袋) (1) (0)
2015-09-16 美食熱銷款-【海鮮達人】優質嚴選帆立貝10包組(200g-包) (1) (0)
2015-09-16 美食熱銷款-四季補 雲林蚵寮 頂級烏魚子 約6兩 4片入 (0) (0)
2015-09-16 美食熱銷款-【皇覺】大廚達人熟食-吉利肋排900g (0) (0)
2015-09-16 美食熱銷款-【寶島福利站】現撈活凍白蝦(2000G-160尾) (0) (0)
2015-09-16 美食熱銷款-法國藍帶杏桃果醬 (230g-罐) (2) (0)
2015-09-16 美食熱銷款-【吼方便】智利特級厚切鮭魚-5入組(400g-片) (0) (0)
2015-09-16 美食熱銷款-《源順》台灣黑豆茶x4+米粉綜合組(有機糙米粉x1組+有機純米粉x1組+黑豆調和糙米粉x1組) (0) (0)
2015-09-16 美食熱銷款-《一兵一卒》清香肉醬(300g-罐) (0) (0)
2015-09-16 美食熱銷款-【名池茶業】2015春茶新鮮上市比賽功夫培法凍頂烏龍茶(3分培火4兩X4入) (0) (0)
2015-09-16 美食熱銷款-【華得水產】海鮮香腸綜合4包組 (0) (0)
2015-09-16 美食熱銷款-杉林溪高山茶金牌大賞2014年冬季比賽茶-烏龍組三朵梅1斤入 (0) (0)
2015-09-16 美食熱銷款-【丸吉】老陳年 純釀甲等壼底油膏 420ml 4入 (0) (0)
2015-09-15 美食熱銷款-【川味老張】清燉牛肉麵6盒組 (27) (0)
2015-09-15 美食熱銷款-【富品家】芋頭糕(1000g/條) (0) (0)
2015-09-15 美食熱銷款-網路回購率排行NO.1【OEC蔥媽媽】 自製豬油-手工蔥抓餅(5片x10包) (0) (0)
2015-09-15 美食熱銷款-【聖祖貢糖】海蘭酥-海苔肉鬆5包組(12入-包) (0) (0)
2015-09-15 美食熱銷款-第二件↘8折【ACE】軟蜜棗乾(250g) (0) (0)
2015-08-09 今夏必備款!CITIZEN 特務菁英【鈦】時尚男錶CA4011-55L (0) (0)
2015-08-09 今夏必備款!A│X Armani Exchange時尚女伶腕錶 AX5421 (0) (0)
2015-08-09 今夏必備款!CITIZEN Eco-Drive 浪漫銀河輕時尚腕錶-黑 FB1377-51E (0) (0)
2015-08-09 今夏必備款!【SEIKO】Kinetic 互動式人動電能時尚腕錶-銀 (0) (0)
2015-08-09 今夏必備款!DKNY 時尚風貌手環腕錶(NY8240)-白-金 (0) (0)